sensor_id;sensor_type;location;lat;lon;timestamp;pressure;altitude;pressure_sealevel;temperature;humidity
48029;BME280;33808;37.368;127.108;2023-02-19T00:01:42;100191.50;;;26.27;nan
48029;BME280;33808;37.368;127.108;2023-02-19T00:04:16;100202.72;;;26.31;nan
48029;BME280;33808;37.368;127.108;2023-02-19T00:06:47;100194.19;;;26.27;nan
48029;BME280;33808;37.368;127.108;2023-02-19T00:09:17;100206.25;;;26.23;nan
48029;BME280;33808;37.368;127.108;2023-02-19T00:11:48;100208.75;;;26.25;nan
48029;BME280;33808;37.368;127.108;2023-02-19T00:14:20;100222.63;;;26.20;nan
48029;BME280;33808;37.368;127.108;2023-02-19T00:16:50;100223.44;;;26.20;nan
48029;BME280;33808;37.368;127.108;2023-02-19T00:19:20;100199.19;;;26.22;nan
48029;BME280;33808;37.368;127.108;2023-02-19T00:21:53;100223.97;;;26.24;nan
48029;BME280;33808;37.368;127.108;2023-02-19T00:24:22;100226.31;;;26.27;nan
48029;BME280;33808;37.368;127.108;2023-02-19T00:26:52;100215.09;;;26.32;nan
48029;BME280;33808;37.368;127.108;2023-02-19T00:31:52;100224.41;;;26.11;nan
48029;BME280;33808;37.368;127.108;2023-02-19T00:34:22;100227.31;;;26.26;nan
48029;BME280;33808;37.368;127.108;2023-02-19T00:37:12;100240.53;;;26.28;nan
48029;BME280;33808;37.368;127.108;2023-02-19T00:40:21;100237.03;;;26.27;nan
48029;BME280;33808;37.368;127.108;2023-02-19T00:43:30;100235.84;;;26.21;nan
48029;BME280;33808;37.368;127.108;2023-02-19T00:47:03;100257.94;;;26.23;nan
48029;BME280;33808;37.368;127.108;2023-02-19T00:50:32;100235.13;;;26.11;nan
48029;BME280;33808;37.368;127.108;2023-02-19T00:54:00;100250.38;;;26.11;nan
48029;BME280;33808;37.368;127.108;2023-02-19T00:57:29;100263.44;;;26.14;nan
48029;BME280;33808;37.368;127.108;2023-02-19T01:00:38;100243.47;;;26.00;nan
48029;BME280;33808;37.368;127.108;2023-02-19T01:03:08;100260.78;;;26.22;nan
48029;BME280;33808;37.368;127.108;2023-02-19T01:05:38;100266.50;;;26.27;nan
48029;BME280;33808;37.368;127.108;2023-02-19T01:08:08;100278.03;;;26.28;nan
48029;BME280;33808;37.368;127.108;2023-02-19T01:10:37;100259.78;;;26.23;nan
48029;BME280;33808;37.368;127.108;2023-02-19T01:13:27;100271.03;;;26.27;nan
48029;BME280;33808;37.368;127.108;2023-02-19T01:16:55;100295.47;;;26.32;nan
48029;BME280;33808;37.368;127.108;2023-02-19T01:20:24;100272.38;;;26.31;nan
48029;BME280;33808;37.368;127.108;2023-02-19T01:23:53;100287.94;;;26.27;nan
48029;BME280;33808;37.368;127.108;2023-02-19T01:27:22;100316.25;;;26.38;nan
48029;BME280;33808;37.368;127.108;2023-02-19T01:30:34;100315.22;;;26.31;nan
48029;BME280;33808;37.368;127.108;2023-02-19T01:33:06;100320.28;;;26.34;nan
48029;BME280;33808;37.368;127.108;2023-02-19T01:35:39;100313.59;;;26.38;nan
48029;BME280;33808;37.368;127.108;2023-02-19T01:38:09;100330.03;;;26.43;nan
48029;BME280;33808;37.368;127.108;2023-02-19T01:40:38;100332.84;;;26.41;nan
48029;BME280;33808;37.368;127.108;2023-02-19T01:43:15;100325.34;;;26.45;nan
48029;BME280;33808;37.368;127.108;2023-02-19T01:51:01;100321.69;;;26.54;nan
48029;BME280;33808;37.368;127.108;2023-02-19T01:58:39;100328.69;;;26.55;nan
48029;BME280;33808;37.368;127.108;2023-02-19T02:03:41;100343.63;;;26.58;nan
48029;BME280;33808;37.368;127.108;2023-02-19T02:06:24;100347.84;;;26.60;nan
48029;BME280;33808;37.368;127.108;2023-02-19T02:08:56;100348.03;;;26.67;nan
48029;BME280;33808;37.368;127.108;2023-02-19T02:11:48;100343.34;;;26.69;nan
48029;BME280;33808;37.368;127.108;2023-02-19T02:14:39;100331.63;;;26.70;nan
48029;BME280;33808;37.368;127.108;2023-02-19T02:17:56;100347.06;;;26.76;nan
48029;BME280;33808;37.368;127.108;2023-02-19T02:28:09;100358.97;;;26.90;nan
48029;BME280;33808;37.368;127.108;2023-02-19T02:31:40;100356.28;;;26.90;nan
48029;BME280;33808;37.368;127.108;2023-02-19T02:35:08;100360.16;;;26.96;nan
48029;BME280;33808;37.368;127.108;2023-02-19T02:38:36;100370.22;;;26.94;nan
48029;BME280;33808;37.368;127.108;2023-02-19T02:42:05;100359.13;;;26.89;nan
48029;BME280;33808;37.368;127.108;2023-02-19T02:51:35;100356.97;;;26.84;nan
48029;BME280;33808;37.368;127.108;2023-02-19T02:54:09;100358.31;;;26.88;nan
48029;BME280;33808;37.368;127.108;2023-02-19T02:56:59;100357.63;;;26.94;nan
48029;BME280;33808;37.368;127.108;2023-02-19T02:59:36;100353.81;;;26.97;nan
48029;BME280;33808;37.368;127.108;2023-02-19T03:02:17;100354.44;;;26.91;nan
48029;BME280;33808;37.368;127.108;2023-02-19T03:05:16;100349.94;;;26.99;nan
48029;BME280;33808;37.368;127.108;2023-02-19T03:08:09;100353.31;;;26.93;nan
48029;BME280;33808;37.368;127.108;2023-02-19T03:11:06;100359.34;;;26.95;nan
48029;BME280;33808;37.368;127.108;2023-02-19T03:16:58;100350.09;;;26.90;nan
48029;BME280;33808;37.368;127.108;2023-02-19T03:19:51;100359.13;;;26.89;nan
48029;BME280;33808;37.368;127.108;2023-02-19T03:22:41;100358.66;;;26.93;nan
48029;BME280;33808;37.368;127.108;2023-02-19T03:26:09;100360.66;;;26.91;nan
48029;BME280;33808;37.368;127.108;2023-02-19T03:29:39;100352.13;;;26.96;nan
48029;BME280;33808;37.368;127.108;2023-02-19T03:33:14;100358.31;;;26.96;nan
48029;BME280;33808;37.368;127.108;2023-02-19T03:36:20;100365.03;;;27.00;nan
48029;BME280;33808;37.368;127.108;2023-02-19T03:39:20;100355.16;;;27.01;nan
48029;BME280;33808;37.368;127.108;2023-02-19T03:48:50;100360.03;;;27.22;nan
48029;BME280;33808;37.368;127.108;2023-02-19T03:55:30;100353.22;;;27.36;nan
48029;BME280;33808;37.368;127.108;2023-02-19T04:05:31;100347.84;;;27.52;nan
48029;BME280;33808;37.368;127.108;2023-02-19T04:08:59;100352.34;;;27.52;nan
48029;BME280;33808;37.368;127.108;2023-02-19T04:12:27;100350.81;;;27.57;nan
48029;BME280;33808;37.368;127.108;2023-02-19T04:15:57;100358.06;;;27.65;nan
48029;BME280;33808;37.368;127.108;2023-02-19T04:22:34;100351.34;;;27.69;nan
48029;BME280;33808;37.368;127.108;2023-02-19T04:26:02;100340.06;;;27.74;nan
48029;BME280;33808;37.368;127.108;2023-02-19T04:29:31;100339.22;;;27.82;nan
48029;BME280;33808;37.368;127.108;2023-02-19T04:33:00;100335.75;;;27.89;nan
48029;BME280;33808;37.368;127.108;2023-02-19T04:36:10;100346.28;;;27.91;nan
48029;BME280;33808;37.368;127.108;2023-02-19T04:38:40;100332.69;;;27.92;nan
48029;BME280;33808;37.368;127.108;2023-02-19T04:41:09;100329.13;;;28.00;nan
48029;BME280;33808;37.368;127.108;2023-02-19T04:43:39;100321.78;;;28.02;nan
48029;BME280;33808;37.368;127.108;2023-02-19T04:46:09;100321.41;;;28.05;nan
48029;BME280;33808;37.368;127.108;2023-02-19T04:48:39;100321.56;;;28.12;nan
48029;BME280;33808;37.368;127.108;2023-02-19T04:51:11;100330.78;;;28.18;nan
48029;BME280;33808;37.368;127.108;2023-02-19T04:56:12;100324.19;;;28.28;nan
48029;BME280;33808;37.368;127.108;2023-02-19T04:58:43;100304.00;;;28.32;nan
48029;BME280;33808;37.368;127.108;2023-02-19T05:01:33;100336.59;;;28.38;nan
48029;BME280;33808;37.368;127.108;2023-02-19T05:05:01;100340.91;;;28.47;nan
48029;BME280;33808;37.368;127.108;2023-02-19T05:08:30;100332.31;;;28.51;nan
48029;BME280;33808;37.368;127.108;2023-02-19T05:11:59;100329.97;;;28.57;nan
48029;BME280;33808;37.368;127.108;2023-02-19T05:15:27;100341.53;;;28.57;nan
48029;BME280;33808;37.368;127.108;2023-02-19T05:18:56;100326.72;;;28.61;nan
48029;BME280;33808;37.368;127.108;2023-02-19T05:22:05;100342.03;;;28.61;nan
48029;BME280;33808;37.368;127.108;2023-02-19T05:24:55;100321.00;;;28.64;nan
48029;BME280;33808;37.368;127.108;2023-02-19T05:28:24;100320.72;;;28.51;nan
48029;BME280;33808;37.368;127.108;2023-02-19T05:31:52;100325.94;;;28.44;nan
48029;BME280;33808;37.368;127.108;2023-02-19T05:35:21;100324.97;;;28.37;nan
48029;BME280;33808;37.368;127.108;2023-02-19T05:38:55;100330.91;;;28.24;nan
48029;BME280;33808;37.368;127.108;2023-02-19T05:42:21;100328.53;;;28.29;nan
48029;BME280;33808;37.368;127.108;2023-02-19T05:45:50;100316.81;;;28.22;nan
48029;BME280;33808;37.368;127.108;2023-02-19T05:49:20;100300.84;;;28.29;nan
48029;BME280;33808;37.368;127.108;2023-02-19T05:52:49;100338.22;;;28.47;nan
48029;BME280;33808;37.368;127.108;2023-02-19T05:56:29;100346.94;;;28.49;nan
48029;BME280;33808;37.368;127.108;2023-02-19T05:59:20;100347.75;;;28.58;nan
48029;BME280;33808;37.368;127.108;2023-02-19T06:02:48;100353.28;;;28.64;nan
48029;BME280;33808;37.368;127.108;2023-02-19T06:06:17;100355.78;;;28.66;nan
48029;BME280;33808;37.368;127.108;2023-02-19T06:09:48;100338.34;;;28.62;nan
48029;BME280;33808;37.368;127.108;2023-02-19T06:13:14;100359.22;;;28.83;nan
48029;BME280;33808;37.368;127.108;2023-02-19T06:16:43;100344.22;;;28.88;nan
48029;BME280;33808;37.368;127.108;2023-02-19T06:20:11;100357.16;;;28.93;nan
48029;BME280;33808;37.368;127.108;2023-02-19T06:23:40;100355.22;;;29.02;nan
48029;BME280;33808;37.368;127.108;2023-02-19T06:27:09;100350.44;;;29.12;nan
48029;BME280;33808;37.368;127.108;2023-02-19T06:30:38;100350.22;;;29.22;nan
48029;BME280;33808;37.368;127.108;2023-02-19T06:34:07;100330.44;;;29.15;nan
48029;BME280;33808;37.368;127.108;2023-02-19T07:51:21;100395.88;;;30.29;nan
48029;BME280;33808;37.368;127.108;2023-02-19T07:53:51;100406.78;;;30.36;nan
48029;BME280;33808;37.368;127.108;2023-02-19T07:56:21;100396.81;;;30.36;nan
48029;BME280;33808;37.368;127.108;2023-02-19T07:58:51;100406.84;;;30.42;nan
48029;BME280;33808;37.368;127.108;2023-02-19T08:01:23;100404.44;;;30.48;nan
48029;BME280;33808;37.368;127.108;2023-02-19T08:04:12;100418.38;;;30.51;nan
48029;BME280;33808;37.368;127.108;2023-02-19T08:06:42;100419.41;;;30.50;nan
48029;BME280;33808;37.368;127.108;2023-02-19T08:09:12;100420.91;;;30.53;nan
48029;BME280;33808;37.368;127.108;2023-02-19T08:11:41;100428.88;;;30.61;nan
48029;BME280;33808;37.368;127.108;2023-02-19T08:16:58;100434.25;;;30.61;nan
48029;BME280;33808;37.368;127.108;2023-02-19T08:19:28;100428.69;;;30.62;nan
48029;BME280;33808;37.368;127.108;2023-02-19T08:21:58;100435.31;;;30.60;nan
48029;BME280;33808;37.368;127.108;2023-02-19T08:24:28;100412.81;;;30.53;nan
48029;BME280;33808;37.368;127.108;2023-02-19T08:26:59;100435.13;;;30.61;nan
48029;BME280;33808;37.368;127.108;2023-02-19T08:29:29;100439.66;;;30.61;nan
48029;BME280;33808;37.368;127.108;2023-02-19T08:32:18;100442.81;;;30.64;nan
48029;BME280;33808;37.368;127.108;2023-02-19T08:35:48;100459.47;;;30.68;nan
48029;BME280;33808;37.368;127.108;2023-02-19T08:39:17;100456.13;;;30.66;nan
48029;BME280;33808;37.368;127.108;2023-02-19T08:42:46;100455.19;;;30.59;nan
48029;BME280;33808;37.368;127.108;2023-02-19T08:46:14;100468.97;;;30.64;nan
48029;BME280;33808;37.368;127.108;2023-02-19T08:49:46;100473.88;;;30.60;nan
48029;BME280;33808;37.368;127.108;2023-02-19T08:52:57;100475.00;;;30.51;nan
48029;BME280;33808;37.368;127.108;2023-02-19T08:55:46;100483.38;;;30.56;nan
48029;BME280;33808;37.368;127.108;2023-02-19T08:59:15;100489.13;;;30.53;nan
48029;BME280;33808;37.368;127.108;2023-02-19T09:02:44;100492.41;;;30.49;nan
48029;BME280;33808;37.368;127.108;2023-02-19T09:06:14;100498.16;;;30.45;nan
48029;BME280;33808;37.368;127.108;2023-02-19T09:09:41;100498.25;;;30.37;nan
48029;BME280;33808;37.368;127.108;2023-02-19T09:13:10;100506.34;;;30.37;nan
48029;BME280;33808;37.368;127.108;2023-02-19T09:16:39;100474.13;;;30.21;nan
48029;BME280;33808;37.368;127.108;2023-02-19T09:20:08;100496.97;;;30.25;nan
48029;BME280;33808;37.368;127.108;2023-02-19T09:23:36;100505.72;;;30.27;nan
48029;BME280;33808;37.368;127.108;2023-02-19T09:27:05;100503.34;;;30.09;nan
48029;BME280;33808;37.368;127.108;2023-02-19T09:30:34;100520.00;;;30.13;nan
48029;BME280;33808;37.368;127.108;2023-02-19T09:33:45;100520.38;;;30.10;nan
48029;BME280;33808;37.368;127.108;2023-02-19T09:36:17;100520.91;;;30.05;nan
48029;BME280;33808;37.368;127.108;2023-02-19T09:39:07;100534.56;;;30.03;nan
48029;BME280;33808;37.368;127.108;2023-02-19T09:42:35;100537.44;;;30.02;nan
48029;BME280;33808;37.368;127.108;2023-02-19T09:46:08;100546.25;;;29.96;nan
48029;BME280;33808;37.368;127.108;2023-02-19T09:55:32;100554.25;;;29.81;nan
48029;BME280;33808;37.368;127.108;2023-02-19T09:58:31;100588.97;;;29.76;nan
48029;BME280;33808;37.368;127.108;2023-02-19T10:01:04;100593.00;;;29.72;nan
48029;BME280;33808;37.368;127.108;2023-02-19T10:03:54;100593.56;;;29.67;nan
48029;BME280;33808;37.368;127.108;2023-02-19T10:06:43;100595.38;;;29.66;nan
48029;BME280;33808;37.368;127.108;2023-02-19T10:14:40;100615.94;;;29.59;nan
48029;BME280;33808;37.368;127.108;2023-02-19T10:17:24;100619.00;;;29.56;nan
48029;BME280;33808;37.368;127.108;2023-02-19T10:20:49;100630.47;;;29.50;nan
48029;BME280;33808;37.368;127.108;2023-02-19T10:24:24;100640.28;;;29.43;nan
48029;BME280;33808;37.368;127.108;2023-02-19T10:27:49;100641.28;;;29.42;nan
48029;BME280;33808;37.368;127.108;2023-02-19T10:31:20;100647.22;;;29.29;nan
48029;BME280;33808;37.368;127.108;2023-02-19T10:34:47;100662.03;;;29.25;nan
48029;BME280;33808;37.368;127.108;2023-02-19T10:38:16;100663.19;;;29.22;nan
48029;BME280;33808;37.368;127.108;2023-02-19T10:41:04;100669.94;;;29.18;nan
48029;BME280;33808;37.368;127.108;2023-02-19T10:44:37;100675.16;;;29.03;nan
48029;BME280;33808;37.368;127.108;2023-02-19T10:48:03;100677.00;;;29.03;nan
48029;BME280;33808;37.368;127.108;2023-02-19T10:50:51;100683.25;;;28.95;nan
48029;BME280;33808;37.368;127.108;2023-02-19T10:53:42;100682.56;;;28.85;nan
48029;BME280;33808;37.368;127.108;2023-02-19T10:56:23;100677.69;;;28.88;nan
48029;BME280;33808;37.368;127.108;2023-02-19T10:59:33;100684.09;;;28.79;nan
48029;BME280;33808;37.368;127.108;2023-02-19T11:02:42;100696.88;;;28.77;nan
48029;BME280;33808;37.368;127.108;2023-02-19T11:06:11;100687.81;;;28.78;nan
48029;BME280;33808;37.368;127.108;2023-02-19T11:09:47;100685.44;;;28.83;nan
48029;BME280;33808;37.368;127.108;2023-02-19T11:13:15;100682.94;;;28.82;nan
48029;BME280;33808;37.368;127.108;2023-02-19T11:16:14;100668.13;;;28.86;nan
48029;BME280;33808;37.368;127.108;2023-02-19T11:19:03;100666.31;;;28.78;nan
48029;BME280;33808;37.368;127.108;2023-02-19T11:25:37;100676.69;;;28.81;nan
48029;BME280;33808;37.368;127.108;2023-02-19T11:29:26;100683.94;;;28.81;nan
48029;BME280;33808;37.368;127.108;2023-02-19T11:32:28;100701.25;;;28.78;nan
48029;BME280;33808;37.368;127.108;2023-02-19T11:58:46;100753.69;;;28.82;nan
48029;BME280;33808;37.368;127.108;2023-02-19T12:02:24;100746.78;;;28.71;nan
48029;BME280;33808;37.368;127.108;2023-02-19T12:06:07;100753.66;;;28.74;nan
48029;BME280;33808;37.368;127.108;2023-02-19T12:09:29;100728.97;;;28.70;nan
48029;BME280;33808;37.368;127.108;2023-02-19T12:18:34;100753.00;;;28.72;nan
48029;BME280;33808;37.368;127.108;2023-02-19T12:21:17;100753.34;;;28.77;nan
48029;BME280;33808;37.368;127.108;2023-02-19T12:24:28;100760.91;;;28.73;nan
48029;BME280;33808;37.368;127.108;2023-02-19T12:33:41;100762.75;;;28.57;nan
48029;BME280;33808;37.368;127.108;2023-02-19T12:46:02;100772.44;;;28.41;nan
48029;BME280;33808;37.368;127.108;2023-02-19T12:48:47;100777.81;;;28.41;nan
48029;BME280;33808;37.368;127.108;2023-02-19T12:51:34;100789.38;;;28.42;nan
48029;BME280;33808;37.368;127.108;2023-02-19T12:55:09;100791.41;;;28.40;nan
48029;BME280;33808;37.368;127.108;2023-02-19T12:57:25;100782.00;;;28.36;nan
48029;BME280;33808;37.368;127.108;2023-02-19T13:00:08;100785.81;;;28.33;nan
48029;BME280;33808;37.368;127.108;2023-02-19T13:02:54;100788.50;;;28.25;nan
48029;BME280;33808;37.368;127.108;2023-02-19T13:05:48;100791.16;;;28.17;nan
48029;BME280;33808;37.368;127.108;2023-02-19T13:10:59;100794.00;;;28.15;nan
48029;BME280;33808;37.368;127.108;2023-02-19T13:13:50;100795.47;;;28.09;nan
48029;BME280;33808;37.368;127.108;2023-02-19T13:16:24;100794.66;;;28.09;nan
48029;BME280;33808;37.368;127.108;2023-02-19T13:19:02;100802.03;;;28.07;nan
48029;BME280;33808;37.368;127.108;2023-02-19T13:21:35;100789.72;;;27.96;nan
48029;BME280;33808;37.368;127.108;2023-02-19T13:24:44;100793.28;;;28.05;nan
48029;BME280;33808;37.368;127.108;2023-02-19T13:38:09;100794.25;;;27.95;nan
48029;BME280;33808;37.368;127.108;2023-02-19T13:40:41;100805.84;;;27.96;nan
48029;BME280;33808;37.368;127.108;2023-02-19T13:43:24;100825.41;;;27.88;nan
48029;BME280;33808;37.368;127.108;2023-02-19T13:46:15;100815.38;;;27.90;nan
48029;BME280;33808;37.368;127.108;2023-02-19T13:48:45;100794.03;;;27.89;nan
48029;BME280;33808;37.368;127.108;2023-02-19T13:53:57;100815.50;;;27.89;nan
48029;BME280;33808;37.368;127.108;2023-02-19T14:04:39;100810.03;;;27.72;nan
48029;BME280;33808;37.368;127.108;2023-02-19T14:14:43;100802.06;;;27.54;nan
48029;BME280;33808;37.368;127.108;2023-02-19T14:25:42;100813.63;;;27.55;nan
48029;BME280;33808;37.368;127.108;2023-02-19T14:28:40;100817.53;;;27.34;nan
48029;BME280;33808;37.368;127.108;2023-02-19T14:33:57;100812.53;;;27.22;nan
48029;BME280;33808;37.368;127.108;2023-02-19T14:39:06;100793.91;;;27.20;nan
48029;BME280;33808;37.368;127.108;2023-02-19T14:41:42;100819.28;;;27.26;nan
48029;BME280;33808;37.368;127.108;2023-02-19T14:44:21;100813.91;;;27.26;nan
48029;BME280;33808;37.368;127.108;2023-02-19T14:47:14;100809.69;;;27.23;nan
48029;BME280;33808;37.368;127.108;2023-02-19T14:50:11;100813.78;;;27.27;nan
48029;BME280;33808;37.368;127.108;2023-02-19T14:53:36;100817.13;;;27.29;nan
48029;BME280;33808;37.368;127.108;2023-02-19T14:57:03;100820.41;;;27.23;nan
48029;BME280;33808;37.368;127.108;2023-02-19T15:00:41;100819.34;;;27.16;nan
48029;BME280;33808;37.368;127.108;2023-02-19T15:04:55;100818.28;;;27.09;nan
48029;BME280;33808;37.368;127.108;2023-02-19T15:07:38;100815.44;;;26.92;nan
48029;BME280;33808;37.368;127.108;2023-02-19T15:11:08;100813.94;;;26.90;nan
48029;BME280;33808;37.368;127.108;2023-02-19T15:14:36;100824.81;;;26.88;nan
48029;BME280;33808;37.368;127.108;2023-02-19T15:18:05;100820.75;;;26.84;nan
48029;BME280;33808;37.368;127.108;2023-02-19T15:21:27;100818.91;;;26.85;nan
48029;BME280;33808;37.368;127.108;2023-02-19T15:24:00;100815.53;;;27.00;nan
48029;BME280;33808;37.368;127.108;2023-02-19T15:29:45;100820.53;;;26.95;nan
48029;BME280;33808;37.368;127.108;2023-02-19T15:33:17;100811.47;;;26.96;nan
48029;BME280;33808;37.368;127.108;2023-02-19T15:36:45;100807.09;;;26.95;nan
48029;BME280;33808;37.368;127.108;2023-02-19T15:40:14;100809.69;;;26.87;nan
48029;BME280;33808;37.368;127.108;2023-02-19T15:46:35;100810.78;;;26.94;nan
48029;BME280;33808;37.368;127.108;2023-02-19T15:49:50;100804.66;;;26.84;nan
48029;BME280;33808;37.368;127.108;2023-02-19T15:53:27;100813.69;;;26.83;nan
48029;BME280;33808;37.368;127.108;2023-02-19T15:56:36;100815.38;;;26.84;nan
48029;BME280;33808;37.368;127.108;2023-02-19T16:02:12;100811.72;;;26.67;nan
48029;BME280;33808;37.368;127.108;2023-02-19T16:04:43;100797.91;;;26.62;nan
48029;BME280;33808;37.368;127.108;2023-02-19T16:07:23;100818.34;;;26.63;nan
48029;BME280;33808;37.368;127.108;2023-02-19T16:12:54;100815.09;;;26.59;nan
48029;BME280;33808;37.368;127.108;2023-02-19T16:15:26;100823.41;;;26.66;nan
48029;BME280;33808;37.368;127.108;2023-02-19T16:17:57;100817.28;;;26.74;nan
48029;BME280;33808;37.368;127.108;2023-02-19T16:20:28;100820.28;;;26.71;nan
48029;BME280;33808;37.368;127.108;2023-02-19T16:23:04;100796.75;;;26.65;nan
48029;BME280;33808;37.368;127.108;2023-02-19T16:25:41;100826.56;;;26.79;nan
48029;BME280;33808;37.368;127.108;2023-02-19T16:28:23;100824.25;;;26.67;nan
48029;BME280;33808;37.368;127.108;2023-02-19T16:30:59;100834.59;;;26.61;nan
48029;BME280;33808;37.368;127.108;2023-02-19T16:33:34;100834.41;;;26.63;nan
48029;BME280;33808;37.368;127.108;2023-02-19T16:36:37;100834.59;;;26.61;nan
48029;BME280;33808;37.368;127.108;2023-02-19T16:39:13;100833.84;;;26.59;nan
48029;BME280;33808;37.368;127.108;2023-02-19T16:47:19;100834.81;;;26.68;nan
48029;BME280;33808;37.368;127.108;2023-02-19T16:52:21;100832.81;;;26.70;nan
48029;BME280;33808;37.368;127.108;2023-02-19T16:54:50;100832.97;;;26.69;nan
48029;BME280;33808;37.368;127.108;2023-02-19T16:57:20;100833.69;;;26.71;nan
48029;BME280;33808;37.368;127.108;2023-02-19T16:59:50;100835.34;;;26.72;nan
48029;BME280;33808;37.368;127.108;2023-02-19T17:02:21;100842.84;;;26.68;nan
48029;BME280;33808;37.368;127.108;2023-02-19T17:04:52;100826.22;;;26.65;nan
48029;BME280;33808;37.368;127.108;2023-02-19T17:07:23;100841.56;;;26.72;nan
48029;BME280;33808;37.368;127.108;2023-02-19T17:09:55;100836.66;;;26.68;nan
48029;BME280;33808;37.368;127.108;2023-02-19T17:12:25;100809.84;;;26.68;nan
48029;BME280;33808;37.368;127.108;2023-02-19T17:14:54;100833.69;;;26.71;nan
48029;BME280;33808;37.368;127.108;2023-02-19T17:17:24;100834.13;;;26.66;nan
48029;BME280;33808;37.368;127.108;2023-02-19T17:19:54;100833.28;;;26.66;nan
48029;BME280;33808;37.368;127.108;2023-02-19T17:22:24;100837.66;;;26.67;nan
48029;BME280;33808;37.368;127.108;2023-02-19T17:24:54;100840.88;;;26.70;nan
48029;BME280;33808;37.368;127.108;2023-02-19T17:27:23;100830.47;;;26.67;nan
48029;BME280;33808;37.368;127.108;2023-02-19T17:29:53;100842.50;;;26.53;nan
48029;BME280;33808;37.368;127.108;2023-02-19T17:32:23;100842.06;;;26.58;nan
48029;BME280;33808;37.368;127.108;2023-02-19T17:34:53;100836.44;;;26.51;nan
48029;BME280;33808;37.368;127.108;2023-02-19T17:37:23;100833.09;;;26.49;nan
48029;BME280;33808;37.368;127.108;2023-02-19T17:39:52;100834.03;;;26.58;nan
48029;BME280;33808;37.368;127.108;2023-02-19T17:42:22;100818.88;;;26.67;nan
48029;BME280;33808;37.368;127.108;2023-02-19T17:44:53;100827.94;;;26.66;nan
48029;BME280;33808;37.368;127.108;2023-02-19T17:47:23;100810.63;;;26.60;nan
48029;BME280;33808;37.368;127.108;2023-02-19T17:49:54;100822.91;;;26.53;nan
48029;BME280;33808;37.368;127.108;2023-02-19T17:52:24;100822.91;;;26.53;nan
48029;BME280;33808;37.368;127.108;2023-02-19T17:54:55;100819.69;;;26.49;nan
48029;BME280;33808;37.368;127.108;2023-02-19T17:57:25;100821.53;;;26.49;nan
48029;BME280;33808;37.368;127.108;2023-02-19T18:00:01;100820.97;;;26.45;nan
48029;BME280;33808;37.368;127.108;2023-02-19T18:02:32;100823.19;;;26.50;nan
48029;BME280;33808;37.368;127.108;2023-02-19T18:05:02;100821.41;;;26.68;nan
48029;BME280;33808;37.368;127.108;2023-02-19T18:07:32;100823.44;;;26.56;nan
48029;BME280;33808;37.368;127.108;2023-02-19T18:10:03;100816.25;;;26.57;nan
48029;BME280;33808;37.368;127.108;2023-02-19T18:12:33;100795.78;;;26.56;nan
48029;BME280;33808;37.368;127.108;2023-02-19T18:15:03;100812.03;;;26.54;nan
48029;BME280;33808;37.368;127.108;2023-02-19T18:17:33;100808.13;;;26.49;nan
48029;BME280;33808;37.368;127.108;2023-02-19T18:20:03;100783.75;;;26.42;nan
48029;BME280;33808;37.368;127.108;2023-02-19T18:25:02;100816.59;;;26.44;nan
48029;BME280;33808;37.368;127.108;2023-02-19T18:27:32;100807.72;;;26.43;nan
48029;BME280;33808;37.368;127.108;2023-02-19T18:30:01;100815.22;;;26.40;nan
48029;BME280;33808;37.368;127.108;2023-02-19T18:32:31;100785.34;;;26.35;nan
48029;BME280;33808;37.368;127.108;2023-02-19T18:35:01;100812.28;;;26.33;nan
48029;BME280;33808;37.368;127.108;2023-02-19T18:37:31;100816.81;;;26.33;nan
48029;BME280;33808;37.368;127.108;2023-02-19T18:40:03;100812.84;;;26.37;nan
48029;BME280;33808;37.368;127.108;2023-02-19T18:42:33;100804.72;;;26.29;nan
48029;BME280;33808;37.368;127.108;2023-02-19T18:45:03;100806.25;;;26.31;nan
48029;BME280;33808;37.368;127.108;2023-02-19T18:47:33;100811.16;;;26.36;nan
48029;BME280;33808;37.368;127.108;2023-02-19T18:50:03;100805.19;;;26.42;nan
48029;BME280;33808;37.368;127.108;2023-02-19T18:52:37;100801.00;;;26.39;nan
48029;BME280;33808;37.368;127.108;2023-02-19T18:57:37;100796.75;;;26.37;nan
48029;BME280;33808;37.368;127.108;2023-02-19T19:00:07;100797.22;;;26.50;nan
48029;BME280;33808;37.368;127.108;2023-02-19T19:02:38;100797.22;;;26.50;nan
48029;BME280;33808;37.368;127.108;2023-02-19T19:05:18;100794.41;;;26.52;nan
48029;BME280;33808;37.368;127.108;2023-02-19T19:07:55;100787.91;;;26.54;nan
48029;BME280;33808;37.368;127.108;2023-02-19T19:10:27;100796.06;;;26.63;nan
48029;BME280;33808;37.368;127.108;2023-02-19T19:12:58;100793.81;;;26.58;nan
48029;BME280;33808;37.368;127.108;2023-02-19T19:15:28;100798.09;;;26.51;nan
48029;BME280;33808;37.368;127.108;2023-02-19T19:20:27;100801.63;;;26.51;nan
48029;BME280;33808;37.368;127.108;2023-02-19T19:22:57;100806.97;;;26.51;nan
48029;BME280;33808;37.368;127.108;2023-02-19T19:30:25;100797.59;;;26.37;nan
48029;BME280;33808;37.368;127.108;2023-02-19T19:32:55;100798.47;;;26.38;nan
48029;BME280;33808;37.368;127.108;2023-02-19T19:35:25;100808.69;;;26.25;nan
48029;BME280;33808;37.368;127.108;2023-02-19T19:37:56;100804.16;;;26.25;nan
48029;BME280;33808;37.368;127.108;2023-02-19T19:40:26;100792.25;;;26.37;nan
48029;BME280;33808;37.368;127.108;2023-02-19T19:42:56;100807.19;;;26.40;nan